KHWO/HWO METAR and TAF weather

Enter ICAO airport designator
Station Type Date Time Source
KHWO METAR 2019/08/25 06:53 UTC NOAA

KHWO 250653Z AUTO 21003KT 10SM CLR 28/25 A2993 RMK AO2 SLP135 T02780250


Station Type Date Time Source
KHWO Decoded METAR 2019/08/25 06:53 UTC NOAA

Station name not available
Aug 25, 2019 - 02:53 AM EDT / 2019.08.25 0653 UTC
Wind: from the SSW (210 degrees) at 3 MPH (3 KT):0
Visibility: 10 mile(s):0
Sky conditions: clear
Temperature: 82.0 F (27.8 C)
Dew Point: 77.0 F (25.0 C)
Relative Humidity: 84%
Pressure (altimeter): 29.93 in. Hg (1013 hPa)
ob: KHWO 250653Z AUTO 21003KT 10SM CLR 28/25 A2993 RMK AO2 SLP135 T02780250
cycle: 7

Station Type Date Time Source
KHWO TAF UTC NOAA

Error!

Example: see airport list